createdAt,value
2024-02-24T00:00:26.099Z,88.82
2024-02-24T00:01:29.096Z,88.94
2024-02-24T00:02:31.049Z,88.96
2024-02-24T00:03:33.989Z,89.08
2024-02-24T00:04:36.007Z,88.88
2024-02-24T00:05:39.082Z,89.01
2024-02-24T00:06:41.145Z,89.60
2024-02-24T00:07:44.130Z,89.52
2024-02-24T00:08:46.145Z,89.78
2024-02-24T00:09:49.067Z,89.63
2024-02-24T00:10:52.486Z,89.75
2024-02-24T00:11:55.495Z,89.71
2024-02-24T00:12:57.511Z,90.09
2024-02-24T00:14:00.503Z,89.94
2024-02-24T00:15:02.494Z,90.58
2024-02-24T00:16:05.269Z,90.25
2024-02-24T00:17:08.200Z,90.22
2024-02-24T00:18:10.251Z,90.18
2024-02-24T00:19:13.229Z,90.09
2024-02-24T00:20:15.272Z,90.23
2024-02-24T00:21:18.243Z,89.59
2024-02-24T00:22:20.193Z,90.01
2024-02-24T00:23:24.241Z,90.28
2024-02-24T00:24:26.235Z,89.99
2024-02-24T00:25:29.130Z,90.25
2024-02-24T00:26:32.491Z,90.89
2024-02-24T00:27:34.538Z,90.25
2024-02-24T00:28:37.495Z,89.98
2024-02-24T00:29:39.648Z,90.03
2024-02-24T00:30:42.680Z,90.56
2024-02-24T00:31:44.642Z,90.40
2024-02-24T00:32:46.682Z,90.05
2024-02-24T00:33:49.779Z,90.13
2024-02-24T00:34:51.759Z,90.40
2024-02-24T00:35:54.699Z,89.68
2024-02-24T00:36:56.668Z,90.45
2024-02-24T00:37:59.020Z,90.02
2024-02-24T00:39:01.947Z,90.01
2024-02-24T00:40:04.515Z,89.57
2024-02-24T00:41:07.548Z,90.03
2024-02-24T00:42:10.919Z,90.14
2024-02-24T00:43:13.978Z,89.69
2024-02-24T00:44:16.021Z,89.90
2024-02-24T00:45:19.610Z,90.13
2024-02-24T00:46:21.575Z,90.44
2024-02-24T00:47:24.536Z,90.09
2024-02-24T00:48:27.085Z,90.25
2024-02-24T00:49:30.733Z,90.59
2024-02-24T00:50:32.982Z,90.19
2024-02-24T00:51:35.927Z,90.51
2024-02-24T00:52:38.007Z,90.38
2024-02-24T00:53:41.212Z,90.44
2024-02-24T00:54:45.605Z,90.79
2024-02-24T00:55:48.588Z,90.38
2024-02-24T00:56:50.873Z,90.83
2024-02-24T00:57:55.458Z,90.92
2024-02-24T00:58:57.423Z,90.97
2024-02-24T01:00:00.444Z,90.73
2024-02-24T01:01:02.513Z,91.10
2024-02-24T01:02:05.473Z,91.53
2024-02-24T01:03:07.444Z,90.74
2024-02-24T01:04:10.449Z,91.19
2024-02-24T01:05:12.585Z,91.12
2024-02-24T01:06:15.512Z,91.33
2024-02-24T01:07:17.530Z,90.80
2024-02-24T01:08:20.623Z,91.01
2024-02-24T01:09:22.598Z,91.04
2024-02-24T01:10:26.248Z,90.65
2024-02-24T01:11:28.325Z,90.82
2024-02-24T01:12:31.333Z,91.10
2024-02-24T01:13:34.670Z,90.95
2024-02-24T01:14:37.751Z,90.80
2024-02-24T01:15:40.414Z,91.32
2024-02-24T01:16:45.488Z,91.21
2024-02-24T01:17:48.063Z,91.00
2024-02-24T01:18:51.137Z,90.98
2024-02-24T01:19:53.167Z,91.20
2024-02-24T01:20:56.659Z,91.01
2024-02-24T01:21:59.550Z,90.64
2024-02-24T01:23:02.644Z,91.08
2024-02-24T01:24:04.837Z,91.08
2024-02-24T01:25:08.495Z,91.23
2024-02-24T01:26:10.434Z,90.83
2024-02-24T01:27:13.492Z,90.55
2024-02-24T01:28:15.474Z,90.60
2024-02-24T01:29:19.771Z,90.39
2024-02-24T01:30:21.890Z,90.77
2024-02-24T01:31:24.844Z,90.86
2024-02-24T01:32:26.890Z,90.70
2024-02-24T01:33:29.940Z,91.23
2024-02-24T01:34:32.080Z,90.92
2024-02-24T01:35:36.528Z,90.70
2024-02-24T01:36:38.551Z,91.19
2024-02-24T01:37:41.680Z,91.56
2024-02-24T01:38:43.750Z,91.59
2024-02-24T01:39:46.739Z,91.49
2024-02-24T01:40:48.725Z,91.03
2024-02-24T01:41:51.803Z,91.17
2024-02-24T01:42:55.020Z,91.03
2024-02-24T01:43:58.012Z,90.71
2024-02-24T01:45:01.915Z,90.53
2024-02-24T01:46:06.185Z,90.26
2024-02-24T01:47:09.055Z,91.13
2024-02-24T01:48:11.996Z,91.05
2024-02-24T01:49:14.340Z,90.73
2024-02-24T01:50:17.642Z,91.36
2024-02-24T01:51:20.084Z,90.99
2024-02-24T01:52:23.132Z,91.05
2024-02-24T01:53:25.526Z,91.03
2024-02-24T01:54:30.133Z,90.42
2024-02-24T01:55:32.305Z,90.51
2024-02-24T01:56:37.198Z,90.54
2024-02-24T01:57:42.631Z,90.58
2024-02-24T01:58:46.709Z,90.41
2024-02-24T01:59:49.062Z,90.31
2024-02-24T02:00:53.576Z,90.87
2024-02-24T02:01:56.004Z,90.27
2024-02-24T02:02:59.573Z,90.50
2024-02-24T02:04:01.887Z,90.42
2024-02-24T02:05:06.604Z,90.39
2024-02-24T02:06:09.009Z,90.57
2024-02-24T02:07:12.247Z,91.09
2024-02-24T02:08:14.273Z,90.92
2024-02-24T02:09:17.244Z,90.91
2024-02-24T02:10:19.270Z,90.97
2024-02-24T02:11:22.302Z,90.33
2024-02-24T02:12:24.824Z,90.40
2024-02-24T02:13:27.936Z,90.60
2024-02-24T02:14:29.959Z,90.46
2024-02-24T02:15:31.916Z,90.47
2024-02-24T02:16:38.197Z,90.17
2024-02-24T02:17:40.569Z,90.44
2024-02-24T02:18:43.676Z,90.30
2024-02-24T02:19:45.716Z,90.91
2024-02-24T02:20:51.970Z,90.43
2024-02-24T02:21:56.901Z,90.36
2024-02-24T02:23:01.283Z,90.62
2024-02-24T02:24:03.584Z,90.62
2024-02-24T02:25:07.210Z,91.23
2024-02-24T02:26:09.380Z,90.65
2024-02-24T02:27:12.480Z,91.19
2024-02-24T02:28:14.526Z,90.82
2024-02-24T02:29:17.461Z,91.55
2024-02-24T02:30:19.610Z,91.02
2024-02-24T02:31:22.748Z,91.24
2024-02-24T02:32:24.812Z,91.10
2024-02-24T02:33:27.945Z,91.44
2024-02-24T02:34:30.123Z,91.00
2024-02-24T02:35:33.338Z,91.19
2024-02-24T02:36:35.814Z,91.23
2024-02-24T02:37:38.942Z,90.66
2024-02-24T02:38:42.313Z,90.09
2024-02-24T02:39:45.298Z,90.57
2024-02-24T02:40:47.266Z,91.13
2024-02-24T02:41:50.190Z,90.57
2024-02-24T02:42:52.145Z,90.39
2024-02-24T02:43:55.046Z,90.21
2024-02-24T02:44:56.985Z,89.89
2024-02-24T02:45:58.951Z,90.38
2024-02-24T02:47:05.771Z,89.77
2024-02-24T02:48:13.501Z,90.06
2024-02-24T02:49:17.133Z,89.69
2024-02-24T02:50:19.379Z,89.86
2024-02-24T02:51:22.293Z,89.67
2024-02-24T02:52:24.399Z,89.48
2024-02-24T02:53:27.335Z,89.46
2024-02-24T02:54:30.636Z,90.16
2024-02-24T02:55:33.619Z,89.90
2024-02-24T02:56:35.668Z,90.02
2024-02-24T02:57:37.697Z,90.11
2024-02-24T02:58:40.579Z,90.24
2024-02-24T02:59:42.648Z,89.35
2024-02-24T03:00:48.215Z,89.86
2024-02-24T03:01:52.681Z,89.99
2024-02-24T03:02:55.897Z,89.33
2024-02-24T03:03:58.284Z,89.78
2024-02-24T03:05:01.421Z,89.53
2024-02-24T03:06:03.914Z,89.64
2024-02-24T03:07:06.905Z,89.29
2024-02-24T03:08:08.928Z,89.17
2024-02-24T03:09:11.878Z,89.29
2024-02-24T03:10:15.248Z,89.14
2024-02-24T03:11:19.169Z,89.16
2024-02-24T03:12:21.176Z,89.24
2024-02-24T03:13:24.203Z,89.40
2024-02-24T03:14:26.204Z,89.46
2024-02-24T03:15:29.157Z,89.17
2024-02-24T03:16:31.336Z,89.47
2024-02-24T03:17:34.346Z,89.81
2024-02-24T03:18:36.553Z,90.01
2024-02-24T03:19:40.264Z,89.90
2024-02-24T03:20:43.602Z,89.75
2024-02-24T03:21:45.579Z,89.83
2024-02-24T03:22:47.508Z,89.84
2024-02-24T03:23:50.504Z,90.24
2024-02-24T03:24:53.072Z,90.17
2024-02-24T03:25:57.339Z,89.45
2024-02-24T03:26:59.382Z,89.87
2024-02-24T03:28:02.300Z,89.68
2024-02-24T03:29:04.298Z,88.89
2024-02-24T03:30:08.729Z,89.04
2024-02-24T03:31:10.752Z,89.34
2024-02-24T03:32:13.843Z,88.83
2024-02-24T03:33:16.088Z,88.74
2024-02-24T03:34:19.146Z,89.22
2024-02-24T03:35:21.127Z,88.58
2024-02-24T03:36:24.433Z,88.16
2024-02-24T03:37:26.407Z,88.02
2024-02-24T03:38:29.370Z,88.05
2024-02-24T03:39:32.368Z,87.67
2024-02-24T03:40:35.320Z,87.29
2024-02-24T03:41:38.669Z,86.73
2024-02-24T03:42:41.615Z,86.68
2024-02-24T03:43:46.420Z,86.40
2024-02-24T03:44:48.442Z,86.42
2024-02-24T03:45:51.490Z,86.47
2024-02-24T03:46:53.881Z,86.66
2024-02-24T03:47:56.910Z,86.89
2024-02-24T03:48:59.088Z,86.55
2024-02-24T03:50:02.073Z,87.25
2024-02-24T03:51:04.549Z,87.16
2024-02-24T03:52:08.059Z,86.87
2024-02-24T03:53:10.012Z,86.85
2024-02-24T03:54:13.070Z,87.24
2024-02-24T03:55:15.040Z,87.59
2024-02-24T03:56:18.069Z,87.22
2024-02-24T03:57:21.427Z,87.24
2024-02-24T03:58:24.384Z,87.64
2024-02-24T03:59:26.509Z,87.80
2024-02-24T04:00:35.990Z,87.17
2024-02-24T04:01:41.230Z,87.24
2024-02-24T04:02:45.115Z,87.64
2024-02-24T04:03:47.258Z,87.26
2024-02-24T04:04:50.182Z,87.23
2024-02-24T04:05:52.367Z,87.40
2024-02-24T04:06:55.480Z,86.82
2024-02-24T04:07:57.541Z,86.89
2024-02-24T04:09:00.638Z,86.82
2024-02-24T04:10:02.716Z,86.82
2024-02-24T04:11:06.175Z,87.03
2024-02-24T04:12:08.409Z,86.52
2024-02-24T04:13:12.980Z,86.54
2024-02-24T04:14:15.022Z,86.41
2024-02-24T04:15:20.420Z,86.69
2024-02-24T04:16:22.345Z,86.52
2024-02-24T04:17:25.350Z,86.97
2024-02-24T04:18:27.534Z,87.02
2024-02-24T04:19:30.561Z,86.60
2024-02-24T04:20:32.582Z,86.60
2024-02-24T04:21:34.517Z,86.57
2024-02-24T04:22:37.500Z,86.68
2024-02-24T04:23:39.531Z,86.62
2024-02-24T04:24:42.827Z,86.69
2024-02-24T04:25:45.208Z,86.65
2024-02-24T04:26:48.166Z,86.24
2024-02-24T04:27:50.108Z,86.31
2024-02-24T04:28:54.432Z,86.08
2024-02-24T04:29:56.408Z,86.12
2024-02-24T04:30:59.372Z,85.95
2024-02-24T04:32:01.303Z,86.15
2024-02-24T04:33:04.806Z,85.57
2024-02-24T04:34:07.124Z,85.19
2024-02-24T04:35:10.419Z,85.17
2024-02-24T04:36:13.359Z,85.08
2024-02-24T04:37:15.436Z,85.41
2024-02-24T04:38:17.482Z,84.83
2024-02-24T04:39:21.852Z,84.86
2024-02-24T04:40:23.795Z,84.94
2024-02-24T04:41:27.347Z,84.81
2024-02-24T04:42:29.322Z,84.80
2024-02-24T04:43:35.533Z,84.92
2024-02-24T04:44:40.587Z,85.09
2024-02-24T04:45:43.690Z,85.19
2024-02-24T04:46:45.626Z,85.63
2024-02-24T04:47:49.009Z,85.22
2024-02-24T04:48:51.447Z,85.33
2024-02-24T04:49:54.514Z,85.40
2024-02-24T04:51:01.072Z,85.01
2024-02-24T04:52:06.540Z,85.10
2024-02-24T04:53:08.518Z,84.97
2024-02-24T04:54:11.521Z,85.10
2024-02-24T04:55:13.889Z,85.19
2024-02-24T04:56:18.829Z,84.69
2024-02-24T04:57:20.831Z,85.10
2024-02-24T04:58:25.736Z,84.52
2024-02-24T04:59:28.496Z,84.24
2024-02-24T05:00:32.895Z,84.80
2024-02-24T05:01:36.781Z,84.55
2024-02-24T05:02:39.897Z,84.55
2024-02-24T05:03:42.353Z,84.75
2024-02-24T05:04:48.521Z,85.17
2024-02-24T05:05:50.501Z,84.75
2024-02-24T05:06:53.493Z,84.91
2024-02-24T05:07:55.567Z,85.16
2024-02-24T05:08:58.547Z,85.58
2024-02-24T05:10:00.629Z,85.50
2024-02-24T05:11:04.066Z,85.72
2024-02-24T05:12:06.765Z,85.88
2024-02-24T05:13:09.798Z,85.20
2024-02-24T05:14:12.611Z,85.80
2024-02-24T05:15:17.877Z,85.54
2024-02-24T05:16:21.191Z,85.51
2024-02-24T05:17:24.169Z,84.96
2024-02-24T05:18:26.247Z,85.10
2024-02-24T05:19:29.248Z,84.77
2024-02-24T05:20:32.238Z,85.15
2024-02-24T05:21:35.469Z,84.83
2024-02-24T05:22:37.403Z,85.30
2024-02-24T05:23:40.419Z,85.00
2024-02-24T05:24:42.790Z,85.13
2024-02-24T05:25:48.525Z,85.43
2024-02-24T05:26:51.498Z,85.18
2024-02-24T05:27:54.448Z,85.62
2024-02-24T05:28:57.829Z,85.12
2024-02-24T05:29:59.782Z,85.41
2024-02-24T05:31:02.745Z,84.96
2024-02-24T05:32:06.917Z,84.95
2024-02-24T05:33:10.355Z,85.21
2024-02-24T05:34:12.500Z,85.74
2024-02-24T05:35:15.846Z,85.68
2024-02-24T05:36:19.268Z,85.78
2024-02-24T05:37:22.475Z,85.88
2024-02-24T05:38:24.469Z,86.00
2024-02-24T05:39:27.443Z,86.15
2024-02-24T05:40:29.466Z,85.54
2024-02-24T05:41:31.570Z,86.08
2024-02-24T05:42:34.556Z,86.13
2024-02-24T05:43:36.656Z,86.15
2024-02-24T05:44:39.664Z,85.73
2024-02-24T05:45:43.009Z,85.66
2024-02-24T05:46:45.976Z,85.56
2024-02-24T05:47:49.403Z,85.88
2024-02-24T05:48:52.482Z,86.09
2024-02-24T05:49:54.637Z,86.27
2024-02-24T05:50:57.663Z,86.30
2024-02-24T05:51:59.840Z,85.77
2024-02-24T05:53:02.830Z,86.50
2024-02-24T05:54:04.910Z,86.46
2024-02-24T05:55:10.048Z,86.56
2024-02-24T05:56:12.112Z,86.43
2024-02-24T05:57:15.135Z,86.30
2024-02-24T05:58:17.065Z,86.01
2024-02-24T05:59:20.969Z,85.83
2024-02-24T06:00:23.165Z,86.40
2024-02-24T06:01:26.237Z,86.36
2024-02-24T06:02:28.256Z,86.49
2024-02-24T06:03:32.622Z,86.26
2024-02-24T06:04:34.897Z,87.17
2024-02-24T06:05:38.272Z,86.68
2024-02-24T06:06:40.295Z,87.06
2024-02-24T06:07:43.297Z,87.08
2024-02-24T06:08:45.437Z,86.78
2024-02-24T06:09:48.422Z,86.88
2024-02-24T06:10:50.415Z,87.23
2024-02-24T06:11:53.518Z,87.46
2024-02-24T06:12:55.764Z,87.29
2024-02-24T06:13:58.731Z,87.29
2024-02-24T06:15:00.925Z,87.30
2024-02-24T06:16:04.596Z,86.99
2024-02-24T06:17:06.641Z,87.01
2024-02-24T06:18:09.928Z,86.59
2024-02-24T06:19:13.356Z,86.70
2024-02-24T06:20:16.401Z,86.51
2024-02-24T06:21:19.307Z,86.86
2024-02-24T06:22:21.421Z,86.53
2024-02-24T06:23:24.353Z,86.74
2024-02-24T06:24:26.360Z,86.08
2024-02-24T06:25:29.289Z,86.11
2024-02-24T06:26:31.342Z,85.82
2024-02-24T06:27:34.413Z,85.81
2024-02-24T06:28:36.628Z,85.52
2024-02-24T06:29:39.618Z,85.43
2024-02-24T06:30:41.663Z,85.22
2024-02-24T06:31:44.569Z,85.24
2024-02-24T06:32:46.589Z,85.43
2024-02-24T06:33:49.791Z,84.72
2024-02-24T06:34:53.366Z,84.60
2024-02-24T06:35:56.428Z,84.32
2024-02-24T06:36:58.425Z,84.24
2024-02-24T06:38:01.378Z,83.91
2024-02-24T06:39:03.957Z,83.61
2024-02-24T06:40:11.418Z,83.63
2024-02-24T06:41:15.599Z,83.21
2024-02-24T06:42:18.605Z,83.45
2024-02-24T06:43:21.037Z,83.29
2024-02-24T06:44:24.089Z,82.60
2024-02-24T06:45:26.114Z,81.67
2024-02-24T06:46:29.093Z,81.89
2024-02-24T06:47:31.148Z,81.62
2024-02-24T06:48:34.471Z,81.73
2024-02-24T06:49:36.576Z,81.05
2024-02-24T06:50:40.988Z,81.29
2024-02-24T06:51:43.865Z,81.07
2024-02-24T06:52:47.067Z,80.96
2024-02-24T06:53:49.380Z,80.32
2024-02-24T06:54:52.518Z,80.21
2024-02-24T06:55:54.664Z,79.92
2024-02-24T06:57:01.157Z,79.03
2024-02-24T06:58:03.590Z,78.44
2024-02-24T06:59:07.876Z,78.26
2024-02-24T07:00:13.123Z,77.87
2024-02-24T07:01:22.780Z,77.61
2024-02-24T07:02:24.897Z,77.82
2024-02-24T07:03:27.951Z,77.47
2024-02-24T07:04:31.858Z,77.74
2024-02-24T07:05:34.875Z,77.21
2024-02-24T07:06:38.705Z,76.89
2024-02-24T07:07:42.853Z,76.61
2024-02-24T07:08:45.002Z,76.09
2024-02-24T07:09:48.568Z,75.70
2024-02-24T07:10:50.954Z,75.26
2024-02-24T07:11:54.011Z,75.23
2024-02-24T07:12:56.156Z,76.75
2024-02-24T07:13:59.090Z,74.34
2024-02-24T07:15:01.102Z,74.26
2024-02-24T07:16:04.132Z,74.03
2024-02-24T07:17:07.576Z,73.55
2024-02-24T07:18:10.761Z,74.73
2024-02-24T07:19:12.781Z,75.14
2024-02-24T07:20:16.080Z,75.10
2024-02-24T07:21:18.317Z,75.04
2024-02-24T07:22:23.089Z,74.34
2024-02-24T07:23:25.376Z,73.85
2024-02-24T07:24:28.385Z,73.46
2024-02-24T07:25:30.357Z,73.36
2024-02-24T07:26:33.342Z,73.23
2024-02-24T07:27:35.707Z,73.18
2024-02-24T07:28:38.651Z,72.79
2024-02-24T07:29:40.856Z,75.77
2024-02-24T07:30:43.867Z,73.65
2024-02-24T07:31:47.001Z,73.36
2024-02-24T07:32:50.141Z,72.42
2024-02-24T07:33:52.426Z,73.22
2024-02-24T07:34:56.640Z,72.75
2024-02-24T07:35:58.852Z,72.39
2024-02-24T07:37:02.941Z,72.15
2024-02-24T07:38:06.388Z,71.05
2024-02-24T07:39:09.394Z,71.16
2024-02-24T07:40:12.431Z,70.70
2024-02-24T07:41:15.514Z,70.38
2024-02-24T07:42:17.810Z,70.73
2024-02-24T07:43:20.932Z,70.15
2024-02-24T07:44:23.111Z,69.88
2024-02-24T07:45:26.685Z,70.38
2024-02-24T07:46:30.557Z,69.99
2024-02-24T07:47:33.608Z,70.66
2024-02-24T07:48:35.456Z,71.21
2024-02-24T07:49:38.701Z,70.43
2024-02-24T07:50:40.887Z,70.01
2024-02-24T07:51:44.344Z,69.46
2024-02-24T07:52:47.895Z,68.28
2024-02-24T07:53:52.432Z,69.44
2024-02-24T07:54:54.678Z,69.21
2024-02-24T07:55:57.758Z,69.45
2024-02-24T07:56:59.968Z,68.71
2024-02-24T07:58:02.941Z,68.84
2024-02-24T07:59:05.065Z,69.15
2024-02-24T08:00:09.860Z,70.31
2024-02-24T08:01:12.078Z,69.60
2024-02-24T08:02:15.134Z,70.20
2024-02-24T08:03:17.168Z,69.51
2024-02-24T08:04:21.048Z,70.10
2024-02-24T08:05:22.959Z,69.28
2024-02-24T08:06:26.017Z,68.93
2024-02-24T08:07:28.680Z,68.09
2024-02-24T08:08:32.274Z,67.51
2024-02-24T08:09:35.823Z,68.09
2024-02-24T08:10:38.812Z,68.44
2024-02-24T08:11:41.877Z,68.36
2024-02-24T08:12:45.249Z,67.62
2024-02-24T08:13:47.279Z,67.93
2024-02-24T08:14:50.886Z,66.97
2024-02-24T08:15:52.922Z,67.36
2024-02-24T08:16:55.900Z,66.69
2024-02-24T08:17:57.964Z,67.81
2024-02-24T08:19:01.265Z,67.06
2024-02-24T08:20:03.849Z,66.67
2024-02-24T08:21:08.206Z,66.08
2024-02-24T08:22:10.547Z,66.25
2024-02-24T08:23:13.535Z,65.96
2024-02-24T08:24:17.566Z,65.53
2024-02-24T08:25:21.797Z,65.13
2024-02-24T08:26:23.886Z,64.87
2024-02-24T08:27:26.951Z,65.40
2024-02-24T08:28:29.079Z,64.75
2024-02-24T08:29:33.049Z,64.64
2024-02-24T08:30:35.136Z,64.58
2024-02-24T08:31:38.576Z,63.69
2024-02-24T08:32:40.693Z,63.63
2024-02-24T08:33:42.952Z,63.17
2024-02-24T08:34:46.362Z,63.76
2024-02-24T08:35:48.491Z,63.85
2024-02-24T08:36:52.553Z,63.94
2024-02-24T08:37:54.515Z,62.88
2024-02-24T08:38:58.233Z,62.58
2024-02-24T08:40:00.365Z,62.91
2024-02-24T08:41:04.981Z,62.79
2024-02-24T08:42:07.076Z,62.80
2024-02-24T08:43:10.188Z,63.12
2024-02-24T08:44:12.233Z,63.79
2024-02-24T08:45:15.356Z,63.58
2024-02-24T08:46:17.519Z,63.27
2024-02-24T08:47:20.700Z,63.07
2024-02-24T08:48:22.782Z,62.65
2024-02-24T08:49:25.813Z,62.32
2024-02-24T08:50:27.965Z,62.68
2024-02-24T08:51:31.092Z,61.23
2024-02-24T08:52:38.981Z,61.44
2024-02-24T08:53:50.055Z,60.78
2024-02-24T08:54:52.261Z,61.08
2024-02-24T08:55:55.280Z,61.86
2024-02-24T08:56:58.625Z,61.96
2024-02-24T08:58:01.673Z,62.14
2024-02-24T08:59:04.011Z,62.44
2024-02-24T09:00:09.562Z,62.16
2024-02-24T09:01:13.430Z,62.38
2024-02-24T09:02:16.714Z,62.50
2024-02-24T09:03:20.429Z,62.35
2024-02-24T09:04:24.361Z,62.62
2024-02-24T09:05:26.522Z,62.63
2024-02-24T09:06:29.589Z,63.18
2024-02-24T09:07:33.183Z,62.65
2024-02-24T09:08:35.671Z,62.55
2024-02-24T09:09:38.673Z,61.81
2024-02-24T09:10:40.688Z,61.55
2024-02-24T09:11:44.719Z,61.50
2024-02-24T09:12:48.229Z,61.95
2024-02-24T09:13:51.236Z,61.35
2024-02-24T09:14:53.272Z,60.73
2024-02-24T09:15:55.349Z,59.93
2024-02-24T09:16:58.460Z,60.31
2024-02-24T09:18:00.665Z,60.63
2024-02-24T09:19:04.135Z,60.95
2024-02-24T09:20:09.909Z,60.98
2024-02-24T09:21:13.476Z,61.13
2024-02-24T09:22:15.577Z,61.43
2024-02-24T09:23:18.591Z,60.10
2024-02-24T09:24:20.607Z,60.19
2024-02-24T09:25:23.586Z,59.97
2024-02-24T09:26:25.724Z,60.00
2024-02-24T09:27:28.705Z,60.37
2024-02-24T09:28:32.188Z,60.77
2024-02-24T09:29:35.172Z,60.95
2024-02-24T09:30:37.346Z,60.75
2024-02-24T09:31:42.396Z,60.42
2024-02-24T09:32:44.508Z,60.08
2024-02-24T09:33:51.270Z,60.43
2024-02-24T09:34:53.485Z,60.33
2024-02-24T09:35:56.574Z,58.23
2024-02-24T09:36:58.639Z,57.57
2024-02-24T09:38:01.594Z,57.31
2024-02-24T09:39:04.300Z,58.37
2024-02-24T09:40:09.756Z,58.30
2024-02-24T09:41:11.950Z,59.34
2024-02-24T09:42:14.955Z,59.10
2024-02-24T09:43:17.217Z,59.44
2024-02-24T09:44:21.636Z,59.46
2024-02-24T09:45:25.990Z,59.09
2024-02-24T09:46:30.615Z,60.05
2024-02-24T09:47:33.553Z,59.07
2024-02-24T09:48:38.005Z,58.18
2024-02-24T09:49:40.785Z,58.24
2024-02-24T09:50:44.025Z,58.34
2024-02-24T09:51:48.228Z,57.51
2024-02-24T09:52:51.198Z,58.41
2024-02-24T09:53:53.330Z,58.06
2024-02-24T09:54:56.438Z,57.26
2024-02-24T09:56:00.949Z,56.74
2024-02-24T09:57:05.395Z,56.52
2024-02-24T09:58:10.405Z,55.83
2024-02-24T09:59:14.032Z,55.80
2024-02-24T10:00:18.069Z,56.83
2024-02-24T10:01:21.262Z,57.14
2024-02-24T10:02:23.336Z,57.29
2024-02-24T10:03:27.212Z,57.63
2024-02-24T10:04:29.282Z,57.11
2024-02-24T10:05:32.365Z,56.79
2024-02-24T10:06:35.343Z,57.14
2024-02-24T10:07:38.419Z,56.17
2024-02-24T10:08:40.441Z,56.33
2024-02-24T10:09:43.418Z,56.67
2024-02-24T10:10:45.516Z,56.93
2024-02-24T10:11:49.541Z,56.71
2024-02-24T10:12:59.124Z,56.96
2024-02-24T10:14:02.088Z,56.92
2024-02-24T10:15:04.588Z,55.87
2024-02-24T10:16:09.782Z,55.59
2024-02-24T10:17:12.085Z,55.71
2024-02-24T10:18:17.282Z,55.85
2024-02-24T10:20:23.148Z,55.79
2024-02-24T10:21:26.161Z,55.86
2024-02-24T10:22:28.189Z,54.84
2024-02-24T10:23:31.173Z,54.43
2024-02-24T10:24:35.026Z,55.29
2024-02-24T10:25:38.209Z,54.99
2024-02-24T10:26:40.233Z,55.28
2024-02-24T10:27:44.955Z,54.17
2024-02-24T10:28:47.443Z,54.16
2024-02-24T10:29:51.819Z,54.68
2024-02-24T10:30:54.933Z,54.73
2024-02-24T10:31:58.469Z,54.62
2024-02-24T10:33:02.817Z,54.06
2024-02-24T10:34:05.408Z,53.87
2024-02-24T10:35:10.245Z,53.21
2024-02-24T10:36:12.608Z,53.31
2024-02-24T10:37:15.984Z,53.43
2024-02-24T10:38:28.514Z,52.84
2024-02-24T10:39:41.743Z,51.74
2024-02-24T10:40:44.089Z,53.03
2024-02-24T10:41:48.052Z,52.96
2024-02-24T10:42:51.310Z,53.41
2024-02-24T10:44:05.941Z,52.74
2024-02-24T10:45:17.401Z,52.70
2024-02-24T10:46:20.406Z,52.87
2024-02-24T10:47:24.242Z,52.18
2024-02-24T10:48:27.345Z,51.20
2024-02-24T10:49:30.037Z,52.07
2024-02-24T10:50:33.313Z,53.16
2024-02-24T10:51:38.044Z,53.49
2024-02-24T10:52:42.719Z,53.08
2024-02-24T10:53:58.834Z,53.05
2024-02-24T10:55:04.255Z,53.01
2024-02-24T10:56:08.028Z,52.08
2024-02-24T10:57:11.869Z,52.71
2024-02-24T10:58:19.253Z,53.04
2024-02-24T10:59:29.270Z,52.51
2024-02-24T11:00:32.903Z,53.11
2024-02-24T11:01:43.428Z,52.81
2024-02-24T11:02:47.462Z,52.71
2024-02-24T11:03:51.409Z,50.90
2024-02-24T11:04:53.734Z,52.22
2024-02-24T11:05:57.235Z,51.48
2024-02-24T11:07:01.772Z,52.74
2024-02-24T11:08:05.706Z,52.43
2024-02-24T11:09:14.622Z,52.92
2024-02-24T11:10:20.432Z,52.71
2024-02-24T11:11:22.449Z,51.22
2024-02-24T11:12:29.355Z,50.00
2024-02-24T11:13:34.401Z,50.56
2024-02-24T11:14:38.384Z,49.97
2024-02-24T11:15:41.485Z,49.61
2024-02-24T11:16:44.323Z,49.28
2024-02-24T11:17:50.740Z,49.84
2024-02-24T11:18:55.981Z,49.17
2024-02-24T11:19:59.140Z,49.03
2024-02-24T11:21:01.295Z,49.60
2024-02-24T11:22:05.075Z,49.45
2024-02-24T11:23:19.893Z,49.66
2024-02-24T11:24:22.050Z,49.43
2024-02-24T11:25:25.033Z,48.38
2024-02-24T11:26:31.233Z,48.30
2024-02-24T11:27:35.960Z,47.97
2024-02-24T11:28:38.216Z,47.93
2024-02-24T11:29:41.322Z,48.68
2024-02-24T11:30:44.039Z,48.96
2024-02-24T11:31:46.247Z,49.25
2024-02-24T11:32:53.469Z,48.21
2024-02-24T11:33:59.645Z,47.42
2024-02-24T11:35:03.240Z,46.55
2024-02-24T11:36:06.905Z,46.29
2024-02-24T11:37:09.814Z,47.53
2024-02-24T11:38:13.312Z,49.08
2024-02-24T11:39:16.723Z,47.35
2024-02-24T11:40:20.045Z,46.67
2024-02-24T11:41:22.971Z,45.63
2024-02-24T11:42:27.623Z,45.22
2024-02-24T11:43:30.496Z,45.29
2024-02-24T11:44:32.759Z,45.53
2024-02-24T11:45:37.605Z,44.59
2024-02-24T11:46:40.384Z,44.46
2024-02-24T11:47:43.490Z,43.80
2024-02-24T11:48:47.097Z,43.84
2024-02-24T11:49:50.707Z,43.89
2024-02-24T11:50:53.446Z,43.86
2024-02-24T11:51:56.640Z,44.53
2024-02-24T11:52:58.643Z,45.01
2024-02-24T11:54:01.884Z,45.98
2024-02-24T11:55:04.507Z,45.42
2024-02-24T11:56:08.149Z,45.01
2024-02-24T11:57:11.492Z,44.04
2024-02-24T11:58:14.988Z,43.39
2024-02-24T11:59:17.117Z,42.30
2024-02-24T12:00:22.296Z,40.89
2024-02-24T12:01:24.725Z,40.91
2024-02-24T12:02:28.187Z,39.28
2024-02-24T12:03:30.195Z,37.68
2024-02-24T12:04:34.922Z,36.89
2024-02-24T12:05:37.496Z,36.20
2024-02-24T12:06:39.613Z,35.61
2024-02-24T12:07:43.800Z,36.25
2024-02-24T12:08:46.520Z,36.85
2024-02-24T12:09:52.400Z,37.28
2024-02-24T12:10:54.936Z,38.71
2024-02-24T12:11:58.877Z,39.67
2024-02-24T12:13:00.993Z,40.64
2024-02-24T12:14:04.008Z,40.92
2024-02-24T12:15:08.621Z,42.29
2024-02-24T12:16:12.032Z,42.45
2024-02-24T12:17:14.082Z,42.32
2024-02-24T12:18:17.237Z,42.75
2024-02-24T12:19:19.589Z,41.67
2024-02-24T12:20:27.438Z,40.51
2024-02-24T12:21:29.476Z,39.43
2024-02-24T12:22:32.447Z,37.70
2024-02-24T12:23:38.005Z,35.89
2024-02-24T12:24:41.113Z,35.03
2024-02-24T12:25:45.408Z,35.30
2024-02-24T12:26:48.519Z,34.47
2024-02-24T12:27:50.630Z,34.48
2024-02-24T12:28:53.934Z,35.43
2024-02-24T12:29:56.021Z,35.40
2024-02-24T12:30:59.181Z,35.21
2024-02-24T12:32:01.360Z,34.55
2024-02-24T12:33:05.194Z,35.38
2024-02-24T12:34:07.567Z,35.82
2024-02-24T12:35:11.253Z,35.67
2024-02-24T12:36:15.787Z,35.24
2024-02-24T12:37:18.838Z,36.77
2024-02-24T12:38:20.834Z,35.51
2024-02-24T12:39:25.327Z,37.17
2024-02-24T12:40:28.974Z,39.35
2024-02-24T12:41:34.174Z,41.24
2024-02-24T12:42:40.381Z,41.79
2024-02-24T12:43:43.735Z,42.15
2024-02-24T12:44:45.796Z,42.58
2024-02-24T12:45:50.846Z,43.27
2024-02-24T12:46:53.932Z,43.95
2024-02-24T12:47:56.644Z,43.32
2024-02-24T12:48:59.855Z,45.46
2024-02-24T12:50:02.350Z,44.45
2024-02-24T12:51:05.555Z,43.77
2024-02-24T12:52:08.932Z,44.04
2024-02-24T12:53:11.893Z,44.06
2024-02-24T12:54:14.311Z,43.58
2024-02-24T12:55:17.058Z,43.53
2024-02-24T12:56:20.061Z,42.09
2024-02-24T12:57:22.154Z,40.93
2024-02-24T12:58:25.930Z,40.82
2024-02-24T12:59:29.770Z,42.08
2024-02-24T13:00:32.890Z,40.95
2024-02-24T13:01:34.931Z,40.25
2024-02-24T13:02:38.695Z,39.56
2024-02-24T13:03:40.605Z,38.52
2024-02-24T13:04:43.642Z,38.56
2024-02-24T13:05:45.809Z,37.24
2024-02-24T13:06:49.013Z,34.75
2024-02-24T13:07:53.165Z,33.34
2024-02-24T13:08:56.309Z,33.69
2024-02-24T13:09:58.517Z,31.75
2024-02-24T13:11:02.892Z,30.91
2024-02-24T13:12:06.626Z,30.77
2024-02-24T13:13:09.512Z,30.76
2024-02-24T13:14:11.471Z,32.53
2024-02-24T13:15:14.407Z,33.45
2024-02-24T13:16:16.442Z,33.13
2024-02-24T13:17:21.338Z,33.31
2024-02-24T13:18:23.810Z,34.63
2024-02-24T13:19:27.281Z,35.69
2024-02-24T13:20:29.487Z,35.16
2024-02-24T13:21:32.468Z,34.57
2024-02-24T13:22:34.570Z,33.06
2024-02-24T13:23:38.932Z,31.99
2024-02-24T13:24:40.999Z,31.09
2024-02-24T13:25:44.606Z,31.22
2024-02-24T13:26:46.694Z,32.11
2024-02-24T13:27:49.754Z,34.02
2024-02-24T13:28:51.711Z,34.78
2024-02-24T13:29:55.387Z,36.13
2024-02-24T13:30:57.209Z,33.77
2024-02-24T13:32:00.186Z,34.25
2024-02-24T13:33:02.936Z,34.44
2024-02-24T13:34:05.434Z,34.76
2024-02-24T13:35:09.668Z,33.70